Hordafor III — LLVC — position and weather

sailwx.info

Track history (hours):
 
Tides and Currents Weather Stations Pressure Air Temp Water Temp Dewpoint Dewpoint Depression Visibility Wind Speed Wind Dir Waves Ship Positions

Hordafor III

Last reported at 2015-Aug-27 21:07 UTC. Time now 2015-Sep-01 10:13 UTC.
Position N 67°28' E 014°28'.

Length 50 m; draft 6 m.

Type: Cargo ship. MMSI: 258044000.

Date/timePositionNaut miles runAvg speedWind from/ knotsBaromVisibWave heightAir tempDewpointWater temp
2015-Aug-27 21:07N 67°28' E 014°28'611.1
2015-Aug-27 20:33N 67°22' E 014°24'1111.1
2015-Aug-27 19:34N 67°13' E 014°09'1111.2
2015-Aug-27 18:33N 67°04' E 013°53'1110.9
2015-Aug-27 17:33N 66°58' E 013°30'3310.4
2015-Aug-27 14:24N 66°27' E 012°60'7610.5
2015-Aug-27 07:11N 65°15' E 011°56'910.9
2015-Aug-27 06:21N 65°07' E 011°49'910.8
2015-Aug-27 05:33N 64°60' E 011°37'1110.8
2015-Aug-27 04:33N 64°53' E 011°18'1110.4
2015-Aug-27 03:30N 64°45' E 010°59'5510.3
2015-Aug-26 22:10N 63°60' E 009°47'610.7
2015-Aug-26 21:33N 63°53' E 009°45'1110.5
2015-Aug-26 20:29N 63°44' E 009°32'  
Track history (hours):
 
Tides and Currents Weather Stations Pressure Air Temp Water Temp Dewpoint Dewpoint Depression Visibility Wind Speed Wind Dir Waves Ship Positions

Hordafor III

Last reported at 2015-Aug-27 21:07 UTC. Time now 2015-Sep-01 10:13 UTC.
Position N 67°28' E 014°28'.

Length 50 m; draft 6 m.

Type: Cargo ship. MMSI: 258044000.

Date/timePositionNaut miles runAvg speedWind from/ knotsBaromVisibWave heightAir tempDewpointWater temp
2015-Aug-27 21:07N 67°28' E 014°28'611.1
2015-Aug-27 20:33N 67°22' E 014°24'1111.1
2015-Aug-27 19:34N 67°13' E 014°09'1111.2
2015-Aug-27 18:33N 67°04' E 013°53'1110.9
2015-Aug-27 17:33N 66°58' E 013°30'3310.4
2015-Aug-27 14:24N 66°27' E 012°60'7610.5
2015-Aug-27 07:11N 65°15' E 011°56'910.9
2015-Aug-27 06:21N 65°07' E 011°49'910.8
2015-Aug-27 05:33N 64°60' E 011°37'1110.8
2015-Aug-27 04:33N 64°53' E 011°18'1110.4
2015-Aug-27 03:30N 64°45' E 010°59'5510.3
2015-Aug-26 22:10N 63°60' E 009°47'610.7
2015-Aug-26 21:33N 63°53' E 009°45'1110.5
2015-Aug-26 20:29N 63°44' E 009°32'  

Dump ship's entire track history